Weather reports worldwide

Advertisment
Utklippan, Sweden (2632): temperature & dewpoint: 30.06.2020 18:00:00 - 06.07.2020 18:00:00 (CEST)Utklippan, Sweden (2632): wind speed & gusts: 30.06.2020 18:00:00 - 06.07.2020 18:00:00 (CEST)Utklippan, Sweden (2632): wind direction: 30.06.2020 18:00:00 - 06.07.2020 18:00:00 (CEST)
Date & Time tt [°C] td [°C] ff [km/h] ff [kn] fx [km/h] fx [kn] dd
06.07.2020 18:00:00 16,6 12,1 47 25 58 31 SW
06.07.2020 17:00:00 16,3 12,3 45 24 65 35 SW
06.07.2020 16:00:00 16,6 12,1 50 27 68 37 SW
06.07.2020 15:00:00 16,4 12,2 49 26 64 34 SW
06.07.2020 14:00:00 16,4 11,8 45 24 58 32 SW
06.07.2020 13:00:00 15,7 12,4 31 17 73 40 WSW
06.07.2020 12:00:00 15,1 12,2 49 26 59 32 SW
06.07.2020 11:00:00 16,2 10,5 46 25 59 32 SW
06.07.2020 10:00:00 16,0 11,0 49 26 63 34 SW
06.07.2020 09:00:00 15,8 11,2 50 27 69 37 SW
06.07.2020 08:00:00 15,9 10,9 41 22 55 30 SW
06.07.2020 07:00:00 15,5 10,9 48 26 61 33 SW
06.07.2020 06:00:00 14,9 11,5 47 25 61 33 WSW
06.07.2020 05:00:00 14,7 11,3 39 21 58 31 WSW
06.07.2020 04:00:00 14,5 10,9 39 21 57 31 WSW
06.07.2020 03:00:00 14,9 10,9 40 21 61 33 WSW
06.07.2020 02:00:00 15,2 11,0 43 23 58 31 WSW
06.07.2020 01:00:00 15,5 11,3 39 21 58 32 WSW
06.07.2020 00:00:00 15,7 11,5 40 22 56 31 WSW
05.07.2020 23:00:00 16,0 13,1 41 22 55 30 WSW
05.07.2020 22:00:00 16,3 13,6 42 23 57 31 WSW
05.07.2020 21:00:00 16,9 13,8 46 25 63 34 WSW
05.07.2020 20:00:00 17,1 14,6 48 26 62 33 SW
05.07.2020 19:00:00 17,2 15,4 50 27 61 33 SW
05.07.2020 18:00:00 17,5 15,8 48 26 68 37 SW
05.07.2020 17:00:00 17,4 16,1 54 29 68 37 SW
05.07.2020 16:00:00 17,6 16,3 48 26 60 33 SW
05.07.2020 15:00:00 17,6 16,3 48 26 68 37 SW
05.07.2020 14:00:00 17,7 16,4 52 28 64 35 SW
05.07.2020 13:00:00 17,3 16,7 44 24 67 36 SW
05.07.2020 12:00:00 17,3 16,5 34 19 42 23 SSW
05.07.2020 11:00:00 16,8 16,6 23 13 39 21 SSW
05.07.2020 10:00:00 16,4 16,4 26 14 37 20 SSW
05.07.2020 09:00:00 16,4 16,4 27 15 36 20 SSW
05.07.2020 08:00:00 16,2 16,2 25 13 34 18 SW
05.07.2020 07:00:00 16,2 16,2 27 14 39 21 SW
05.07.2020 06:00:00 16,0 15,8 29 16 37 20 SW
05.07.2020 05:00:00 15,8 15,7 30 16 37 20 SW
05.07.2020 04:00:00 15,8 15,8 28 15 40 22 SW
05.07.2020 03:00:00 15,9 15,7 34 18 42 23 SW
05.07.2020 02:00:00 15,8 15,8 33 18 48 26 SW
05.07.2020 01:00:00 16,0 15,8 38 21 57 31 WSW
05.07.2020 00:00:00 16,0 15,8 44 24 55 30 SW
04.07.2020 23:00:00 16,1 15,8 44 24 54 29 SW
04.07.2020 22:00:00 15,9 15,7 43 23 56 31 SW
04.07.2020 21:00:00 15,8 15,5 40 22 55 30 SW
04.07.2020 20:00:00 15,6 15,3 41 22 53 29 SW
04.07.2020 19:00:00 15,4 15,4 37 20 49 26 SW
04.07.2020 18:00:00 15,4 15,2 41 22 53 28 SW
04.07.2020 17:00:00 15,9 14,8 39 21 54 29 SW
04.07.2020 16:00:00 16,5 14,5 39 21 53 29 SW
04.07.2020 15:00:00 16,9 14,9 42 23 54 29 SW
04.07.2020 14:00:00 17,1 14,6 42 23 55 30 SW
04.07.2020 13:00:00 17,2 15,0 40 22 55 30 SW
04.07.2020 12:00:00 16,6 14,8 40 22 58 32 SW
04.07.2020 11:00:00 16,4 14,6 43 23 56 30 SW
04.07.2020 10:00:00 15,9 14,9 42 23 57 31 SW
04.07.2020 09:00:00 15,2 14,6 42 23 67 36 SW
04.07.2020 08:00:00 15,5 14,4 47 26 66 36 SW
04.07.2020 07:00:00 15,8 15,2 31 17 44 24 SW
04.07.2020 06:00:00 15,6 14,3 34 19 49 26 SW
04.07.2020 05:00:00 15,3 14,0 41 22 53 29 WSW
04.07.2020 04:00:00 14,5 14,0 27 14 48 26 SW
04.07.2020 03:00:00 14,5 14,3 27 15 48 26 SW
04.07.2020 02:00:00 15,3 14,0 29 16 49 26 SW
04.07.2020 01:00:00 15,8 13,8 32 17 41 22 SW
04.07.2020 00:00:00 16,1 13,0 29 16 40 21 SSW
03.07.2020 23:00:00 15,8 13,3 26 14 30 16 SW
03.07.2020 22:00:00 15,8 12,4 18 10 34 18 WSW
03.07.2020 21:00:00 16,5 10,8 29 16 40 21 W
03.07.2020 20:00:00 16,4 12,7 30 16 40 22 WSW
03.07.2020 19:00:00 16,7 13,2 29 16 37 20 SW
03.07.2020 18:00:00 17,5 13,0 24 13 35 19 SW
03.07.2020 17:00:00 18,4 13,0 23 12 36 19 SW
03.07.2020 16:00:00 16,9 12,4 30 16 37 20 SW
03.07.2020 15:00:00 18,9 11,7 24 13 30 16 SW
03.07.2020 14:00:00 18,8 11,1 21 12 26 14 WSW
03.07.2020 13:00:00 19,6 11,4 13 7 18 10 WSW
03.07.2020 12:00:00 18,5 10,1 10 5 14 8 WSW
03.07.2020 11:00:00 17,0 9,7 9 5 11 6 W
03.07.2020 10:00:00 16,5 9,0 7 4 9 5 W
03.07.2020 09:00:00 16,7 8,6 3 2 8 5 NW
03.07.2020 08:00:00 15,7 9,8 5 3 11 6 NNW
03.07.2020 07:00:00 15,0 10,2 9 5 23 12 NNW
03.07.2020 06:00:00 15,0 9,6 15 8 18 10 NNW
03.07.2020 05:00:00 15,1 9,9 13 7 18 10 NW
03.07.2020 04:00:00 15,2 10,9 10 6 16 9 NNW
03.07.2020 03:00:00 15,3 12,4 12 6 14 8 WNW
03.07.2020 02:00:00 14,8 12,1 6 3 9 5 W
03.07.2020 01:00:00 14,8 12,9 5 3 10 5 W
03.07.2020 00:00:00 15,0 13,3 8 4 13 7 WNW
02.07.2020 23:00:00 15,5 12,4 12 7 18 10 W
02.07.2020 22:00:00 15,8 14,3 16 9 27 15 WSW
02.07.2020 21:00:00 16,5 14,6 20 11 31 17 WSW
02.07.2020 20:00:00 16,9 14,6 26 14 31 17 SW
02.07.2020 19:00:00 17,6 14,5 24 13 35 19 WSW
02.07.2020 18:00:00 17,9 14,8 30 16 39 21 SW
02.07.2020 17:00:00 18,1 14,8 31 17 43 23 SW
02.07.2020 16:00:00 18,3 15,0 34 18 42 23 SW
02.07.2020 15:00:00 19,0 14,3 28 15 36 19 WSW
02.07.2020 14:00:00 18,8 14,9 26 14 37 20 SW
02.07.2020 13:00:00 18,8 14,7 24 13 32 18 SW
02.07.2020 12:00:00 18,8 14,7 23 12 30 16 WSW
02.07.2020 11:00:00 18,1 15,0 27 14 33 18 W
02.07.2020 10:00:00 17,0 15,3 29 15 37 20 W
02.07.2020 09:00:00 16,9 15,4 25 13 32 18 W
02.07.2020 08:00:00 16,3 15,3 22 12 31 17 WSW
02.07.2020 07:00:00 16,4 15,8 23 12 37 20 WSW
02.07.2020 06:00:00 16,0 15,7 29 16 35 19 WSW
02.07.2020 05:00:00 16,0 15,8 23 13 33 18 SW
02.07.2020 04:00:00 16,0 15,8 23 13 31 17 S
02.07.2020 03:00:00 15,8 15,0 19 10 27 15 SSE
02.07.2020 02:00:00 15,9 14,8 17 9 25 14 S
02.07.2020 01:00:00 15,9 14,3 16 9 25 14 S
02.07.2020 00:00:00 15,8 14,3 18 10 24 13 S
01.07.2020 23:00:00 15,8 13,8 15 8 23 12 SW
01.07.2020 22:00:00 15,9 13,9 20 11 35 19 SW
01.07.2020 21:00:00 16,1 13,9 29 16 39 21 SW
01.07.2020 20:00:00 16,4 14,6 30 16 38 21 SW
01.07.2020 19:00:00 16,3 14,5 32 18 42 23 SW
01.07.2020 18:00:00 16,6 14,4 32 17 42 23 SW
01.07.2020 17:00:00 16,4 14,4 35 19 50 27 SW
01.07.2020 16:00:00 16,7 14,3 37 20 52 28 SW
01.07.2020 15:00:00 17,2 14,3 42 23 54 29 SW
01.07.2020 14:00:00 18,2 14,5 38 21 49 26 SW
01.07.2020 13:00:00 18,2 14,1 38 20 49 27 SW
01.07.2020 12:00:00 18,4 13,9 27 15 39 21 SW
01.07.2020 11:00:00 18,0 13,3 29 16 45 24 WSW
01.07.2020 10:00:00 17,9 12,6 33 18 51 27 WSW
01.07.2020 09:00:00 16,9 13,0 37 20 52 28 WSW
01.07.2020 08:00:00 16,7 13,0 37 20 50 27 WSW
01.07.2020 07:00:00 16,0 12,9 35 19 51 28 WSW
01.07.2020 06:00:00 15,4 12,5 42 23 58 32 WSW
01.07.2020 05:00:00 15,4 12,3 45 24 60 33 WSW
01.07.2020 04:00:00 15,3 12,2 42 23 59 32 WSW
01.07.2020 03:00:00 15,4 12,3 41 22 58 31 WSW
01.07.2020 02:00:00 15,5 12,8 40 21 53 29 WSW
01.07.2020 01:00:00 15,6 13,6 44 24 55 30 WSW
01.07.2020 00:00:00 15,4 13,9 41 22 61 33 SW
30.06.2020 23:00:00 15,6 13,8 48 26 63 34 SW
30.06.2020 22:00:00 15,5 14,0 46 25 70 38 SW
30.06.2020 21:00:00 15,6 14,1 54 29 72 39 SW
30.06.2020 20:00:00 15,5 14,0 54 29 74 40 SW
30.06.2020 19:00:00 15,4 14,4 48 26 73 39 WSW
30.06.2020 18:00:00 16,4 14,1 50 27 77 42 SW

tt = temperature
td = dewpoint
ff = wind speed
fx = gusts
dd = wind direction

Next stations